Terminal Aerodrome Forecast
Issued by NWS Duluth, MN

Home | Current Version | Previous Version | Text Only | Print | Product List | Glossary On
Versions: 1 2 3 4 5 6 7 8 9 10 11 12 13 14 15 16 17 18 19 20 21 22 23 24
797
FTUS43 KDLH 161734
TAFINL
TAF
KINL 161734Z 1618/1718 13009KT P6SM VCSH OVC080
      TEMPO 1619/1622 6SM -SHRA BKN050
     FM162200 12006KT 6SM -SHRA BR OVC035
     FM170000 12006KT 3SM -SHRA BR OVC018
     FM170500 09005KT 4SM SHRA OVC008
     FM171100 05006KT 6SM -SHRA BR OVC005
     FM171600 03007KT P6SM VCSH OVC008=

USA.gov is the U.S. government's official web portal to all federal, state and local government web resources and services.